Rockwell, NC (28138)

14:50 EST le 23 novembre 2014 (GMT -0500)
Southern Rowan | Change Station
CLOSE
Current Station
Stations météorologiques personnelles
Location: Rockwell, NC
Altitude: 728 ft
Stations météo à proximité

Alt. 728 ft 35.51 °N, 80.52 °W | Updated 1 second ago

Pluie
Pluie
49.3 ° F
Paraît 49 ° F
N
3.0
Vent Variable Vent de ENE
Gusts 8.0 mph

Aujourd'hui
Haut(e) -- | Bas -- ° F
--% Risque de précip.
Hier
Haut(e) -- | Bas -- ° F
Precip. -- pouce
7:05 AM 5:10 PM
Nouvelle lune, 2% visible
Pression 30.03 pouce
Visibilité 3.0 Miles terrestres
Nuages Couvert 900 ft
Refroidissement éolien 49 ° F
Point de rosée 48 ° F
Humidité 96%
Précipitations 0.22 pouce
Profondeur de la couche neigeuse Non disponible.
UV 1 sur 12
Pollen .40 sur 12
Qualité de l'air Non disponible.
Flu Activity Non disponible.
METAR KRUQ 231935Z AUTO 00000KT 3SM DZ OVC009 08/07 A3003 RMK AO2 P0001 T00760072

More Conditions Fewer Conditions

Pression 30.03 pouce
Visibilité 3.0 Miles terrestres
Nuages Couvert 900 ft
Refroidissement éolien 49 ° F
Point de rosée 48 ° F
Humidité 96%
Précipitations 0.22 pouce
Profondeur de la couche neigeuse Non disponible.
UV 1 sur 12
Pollen .40 sur 12
Qualité de l'air Non disponible.
Flu Activity Non disponible.
METAR KRUQ 231935Z AUTO 00000KT 3SM DZ OVC009 08/07 A3003 RMK AO2 P0001 T00760072

More Conditions Fewer Conditions

10-Day Weather Forecast

Almanac

Astronomie

Nov. 23, 2014 Lever Coucher
Temps réel
Crépuscule civil
Crépuscule nautique
Crépuscule astronomique
Lune
Durée de lumière visible
Longueur du jour
Tomorrow will be .
, % of the Moon is Illuminated

Extrêmes aujourd'hui

State Highs State Lows

Community

WunderPhotos

Upload Photos

1,773,161 Photos téléchargées !

WunderBlogs® & News

Nearby

Qualité de l'air

  Qualité de l'air Indice de la qualité de l'air Polluant
Not available.

Épaisseur de neige

Station Depth Altitude

Activité sismique

Ville Distance Mag. Time & Date
Minimum magnitude displayed is 2.5.

Températures des eaux côtières

Lieu Température

Stations météo à proximité